Time;durP1;ratioP1;P1;durP2;ratioP2;P2;SDS_P1;SDS_P2;PMS_P1;PMS_P2;Temp;Humidity;BMP_temperature;BMP_pressure;BME280_temperature;BME280_humidity;BME280_pressure;Samples;Min_cycle;Max_cycle;Signal;HPM_P1;HPM_P2
2022/11/25 00:01:06;;;;;;;7.60;6.75;;;;;;;3.85;100.00;98412.34;4142391;28;20248;-45
2022/11/25 00:03:08;;;;;;;7.35;5.93;;;;;;;3.76;100.00;98410.91;4135976;28;20289;-47
2022/11/25 00:05:10;;;;;;;6.75;6.03;;;;;;;3.84;100.00;98406.13;4132680;28;20225;-46
2022/11/25 00:07:12;;;;;;;8.23;7.50;;;;;;;3.81;100.00;98411.94;4137197;28;20205;-46
2022/11/25 00:09:14;;;;;;;10.30;7.82;;;;;;;3.75;100.00;98407.38;4156338;28;20244;-46
2022/11/25 00:11:16;;;;;;;8.90;8.07;;;;;;;3.76;100.00;98409.06;4139070;28;20244;-45
2022/11/25 00:13:18;;;;;;;9.65;8.63;;;;;;;3.87;100.00;98405.69;4155005;28;20220;-45
2022/11/25 00:15:20;;;;;;;10.15;9.25;;;;;;;3.81;100.00;98403.81;4142213;28;20244;-45
2022/11/25 00:17:22;;;;;;;8.45;7.65;;;;;;;3.83;100.00;98407.19;4138971;28;20241;-46
2022/11/25 00:19:24;;;;;;;9.43;8.52;;;;;;;3.88;100.00;98406.53;4136626;28;20248;-46
2022/11/25 00:21:28;;;;;;;8.27;7.40;;;;;;;3.81;100.00;98406.53;4138334;28;20208;-45
2022/11/25 00:23:31;;;;;;;10.05;7.43;;;;;;;3.84;100.00;98406.13;4139822;28;20205;-45
2022/11/25 00:25:34;;;;;;;9.57;8.70;;;;;;;3.84;100.00;98400.72;4134535;28;20553;-45
2022/11/25 00:27:36;;;;;;;10.30;9.38;;;;;;;3.95;100.00;98397.34;4139165;28;20373;-46
2022/11/25 00:29:38;;;;;;;11.60;9.30;;;;;;;3.86;100.00;98409.44;4140404;28;20232;-45
2022/11/25 00:31:40;;;;;;;9.32;8.50;;;;;;;3.84;100.00;98406.13;4145673;28;20244;-45
2022/11/25 00:33:42;;;;;;;12.65;8.77;;;;;;;3.82;100.00;98407.38;4144580;28;20207;-46
2022/11/25 00:35:44;;;;;;;17.00;12.07;;;;;;;3.94;100.00;98400.28;4143714;28;20826;-45
2022/11/25 00:37:46;;;;;;;15.25;8.10;;;;;;;4.02;100.00;98403.63;4126538;28;20724;-45
2022/11/25 00:39:48;;;;;;;9.68;8.68;;;;;;;4.03;100.00;98399.00;4140324;28;20240;-45
2022/11/25 00:46:32;;;;;;;9.35;7.05;;;;;;;3.84;100.00;98400.72;4139970;28;20566;-45
2022/11/25 00:48:34;;;;;;;8.35;7.55;;;;;;;3.80;100.00;98404.06;4137595;28;20275;-45
2022/11/25 00:50:36;;;;;;;8.77;7.93;;;;;;;3.81;100.00;98405.72;4138891;28;20201;-46
2022/11/25 00:52:38;;;;;;;8.77;7.88;;;;;;;3.95;100.00;98391.94;4136887;28;20299;-46
2022/11/25 00:54:40;;;;;;;8.23;6.72;;;;;;;4.00;100.00;98394.03;4143442;28;20237;-46
2022/11/25 00:56:42;;;;;;;10.10;7.55;;;;;;;3.86;100.00;98401.31;4155769;28;20201;-44
2022/11/25 00:58:44;;;;;;;11.23;7.47;;;;;;;3.84;100.00;98405.28;4138115;28;20206;-47
2022/11/25 01:00:46;;;;;;;7.53;6.90;;;;;;;3.83;100.00;98409.88;4156490;28;20208;-45
2022/11/25 01:02:48;;;;;;;7.38;6.47;;;;;;;3.85;100.00;98402.38;4133143;28;21064;-45
2022/11/25 01:04:50;;;;;;;7.10;6.30;;;;;;;3.91;100.00;98406.09;4141451;28;20245;-46
2022/11/25 01:06:53;;;;;;;9.00;7.70;;;;;;;4.00;100.00;98402.97;4142217;28;20478;-45
2022/11/25 01:08:54;;;;;;;6.72;6.13;;;;;;;3.96;100.00;98398.19;4136745;28;20214;-46
2022/11/25 01:11:00;;;;;;;9.88;7.30;;;;;;;3.93;100.00;98404.84;4152570;28;20760;-46
2022/11/25 01:13:02;;;;;;;7.63;6.93;;;;;;;3.95;100.00;98408.19;4155101;28;20205;-45
2022/11/25 01:15:04;;;;;;;9.75;7.55;;;;;;;3.94;100.00;98395.69;4138910;28;20289;-45
2022/11/25 01:17:06;;;;;;;7.75;6.68;;;;;;;3.92;100.00;98416.72;4138774;28;20719;-45
2022/11/25 01:19:09;;;;;;;8.52;6.90;;;;;;;3.92;100.00;98408.59;4139098;28;20198;-46
2022/11/25 01:21:18;;;;;;;7.45;6.65;;;;;;;3.99;100.00;98414.84;4122839;28;20197;-45
2022/11/25 01:23:20;;;;;;;7.97;7.20;;;;;;;4.01;100.00;98401.91;4155012;28;20205;-45
2022/11/25 01:25:22;;;;;;;7.40;6.78;;;;;;;4.15;100.00;98403.53;4140800;28;20714;-44
2022/11/25 01:27:24;;;;;;;10.30;6.97;;;;;;;4.14;100.00;98396.47;4142033;28;20671;-45
2022/11/25 01:29:26;;;;;;;7.82;7.13;;;;;;;4.04;100.00;98401.50;4152872;28;20248;-45
2022/11/25 01:31:30;;;;;;;7.22;6.32;;;;;;;4.07;100.00;98395.66;4137931;28;20201;-45
2022/11/25 01:33:34;;;;;;;7.90;6.93;;;;;;;4.08;100.00;98397.31;4139267;28;20251;-45
2022/11/25 01:35:37;;;;;;;8.80;7.03;;;;;;;4.04;100.00;98396.09;4137830;28;20245;-45
2022/11/25 01:37:38;;;;;;;9.05;6.65;;;;;;;4.05;100.00;98407.75;4137085;28;20625;-45
2022/11/25 01:39:40;;;;;;;8.65;7.78;;;;;;;4.07;100.00;98401.06;4140704;28;20248;-45
2022/11/25 01:41:42;;;;;;;8.88;8.00;;;;;;;4.06;100.00;98399.41;4154544;28;20208;-45
2022/11/25 01:44:12;;;;;;;9.40;7.40;;;;;;;4.02;100.00;98392.78;4136551;28;20249;-46
2022/11/25 01:46:29;;;;;;;7.45;6.68;;;;;;;4.04;100.00;98392.56;4137872;28;20217;-45
2022/11/25 01:49:02;;;;;;;8.73;7.82;;;;;;;4.02;100.00;98384.66;4141015;28;20221;-45
2022/11/25 01:51:08;;;;;;;9.75;7.40;;;;;;;4.04;100.00;98384.44;4150768;28;20209;-45
2022/11/25 01:53:11;;;;;;;7.90;7.15;;;;;;;4.05;100.00;98378.81;4125412;28;20214;-45
2022/11/25 01:55:20;;;;;;;7.82;6.78;;;;;;;4.09;100.00;98380.06;4153932;28;20436;-45
2022/11/25 01:57:28;;;;;;;7.80;7.10;;;;;;;4.05;100.00;98386.94;4135700;28;20243;-45
2022/11/25 01:59:32;;;;;;;7.80;7.20;;;;;;;4.08;100.00;98383.78;4135961;28;20331;-45
2022/11/25 02:01:34;;;;;;;7.85;7.15;;;;;;;4.05;100.00;98384.22;4151557;28;20256;-45
2022/11/25 02:03:40;;;;;;;8.82;6.72;;;;;;;4.12;100.00;98384.19;4153104;28;20215;-45
2022/11/25 02:06:07;;;;;;;7.88;7.07;;;;;;;4.06;100.00;98388.59;4142324;28;20225;-45
2022/11/25 02:08:09;;;;;;;7.57;6.30;;;;;;;4.10;100.00;98370.88;4133431;28;20566;-45
2022/11/25 02:10:17;;;;;;;11.25;6.78;;;;;;;4.09;100.00;98369.22;4137842;28;20216;-46
2022/11/25 02:12:19;;;;;;;6.35;5.72;;;;;;;4.08;100.00;98369.44;4136733;28;20245;-47
2022/11/25 02:14:22;;;;;;;5.40;4.95;;;;;;;4.08;100.00;98372.97;4119996;28;20237;-46
2022/11/25 02:16:24;;;;;;;7.35;5.88;;;;;;;4.14;100.00;98368.59;4140487;28;20364;-45
2022/11/25 02:18:26;;;;;;;11.70;6.07;;;;;;;4.16;100.00;98367.34;4153261;28;20243;-45
2022/11/25 02:20:28;;;;;;;8.40;6.32;;;;;;;4.19;100.00;98360.66;4151094;28;20678;-44
2022/11/25 02:22:48;;;;;;;6.20;5.60;;;;;;;4.17;100.00;98362.72;4152596;28;20913;-45
2022/11/25 02:24:55;;;;;;;5.35;4.95;;;;;;;4.17;100.00;98378.97;4138485;28;20256;-46
2022/11/25 02:26:57;;;;;;;7.13;5.22;;;;;;;4.15;100.00;98376.47;4123632;28;20632;-45
2022/11/25 02:28:59;;;;;;;5.93;5.40;;;;;;;4.13;100.00;98378.56;4151940;28;20754;-45
2022/11/25 02:31:00;;;;;;;5.70;5.15;;;;;;;4.24;100.00;98369.81;4136612;28;20292;-45
2022/11/25 02:33:02;;;;;;;6.28;5.20;;;;;;;4.14;100.00;98369.41;4123110;28;20667;-46
2022/11/25 02:35:20;;;;;;;5.85;5.28;;;;;;;4.10;100.00;98370.03;4139145;28;20237;-45
2022/11/25 02:37:22;;;;;;;7.43;5.00;;;;;;;4.19;100.00;98366.09;4154983;28;20197;-46
2022/11/25 02:39:24;;;;;;;7.78;5.28;;;;;;;4.14;100.00;98368.59;4153200;28;20239;-45
2022/11/25 02:41:29;;;;;;;7.43;5.70;;;;;;;4.16;100.00;98361.06;4153263;28;20235;-46
2022/11/25 02:43:31;;;;;;;4.97;4.57;;;;;;;4.10;100.00;98356.50;4137181;28;20209;-45
2022/11/25 02:45:54;;;;;;;8.68;5.45;;;;;;;4.13;100.00;98359.63;4151374;28;20241;-46
2022/11/25 02:47:56;;;;;;;8.10;5.20;;;;;;;4.16;100.00;98359.22;4137311;28;20671;-46
2022/11/25 02:49:58;;;;;;;5.43;4.93;;;;;;;4.17;100.00;98360.88;4137713;28;20209;-46
2022/11/25 02:52:00;;;;;;;5.90;5.28;;;;;;;4.16;100.00;98364.63;4143460;28;20209;-45
2022/11/25 02:54:01;;;;;;;7.15;4.90;;;;;;;4.23;100.00;98364.59;4153204;28;20320;-45
2022/11/25 02:56:03;;;;;;;6.05;5.43;;;;;;;4.22;100.00;98369.19;4140096;28;20233;-45
2022/11/25 02:58:05;;;;;;;6.22;4.63;;;;;;;4.20;100.00;98373.97;4132197;28;20309;-45
2022/11/25 03:00:08;;;;;;;5.70;4.90;;;;;;;4.24;100.00;98374.38;4154210;28;20243;-45
2022/11/25 03:02:09;;;;;;;5.30;4.80;;;;;;;4.15;100.00;98365.66;4151974;28;20722;-45
2022/11/25 03:04:11;;;;;;;5.28;4.63;;;;;;;4.17;100.00;98358.16;4137416;28;20328;-46
2022/11/25 03:06:13;;;;;;;5.70;5.20;;;;;;;4.37;100.00;98361.63;4137114;28;20202;-45
2022/11/25 03:08:15;;;;;;;4.47;3.53;;;;;;;4.30;100.00;98362.69;4152741;28;20215;-46
2022/11/25 03:10:17;;;;;;;8.52;4.07;;;;;;;4.10;100.00;98357.34;4138528;28;20221;-45
2022/11/25 03:12:19;;;;;;;6.80;3.90;;;;;;;4.16;100.00;98356.50;4120198;28;20291;-45
2022/11/25 03:14:20;;;;;;;4.50;4.05;;;;;;;4.08;100.00;98354.00;4123202;28;20229;-45
2022/11/25 03:16:22;;;;;;;4.40;3.85;;;;;;;4.19;100.00;98350.66;4153383;28;20291;-46
2022/11/25 03:18:24;;;;;;;3.50;3.28;;;;;;;4.10;100.00;98351.09;4135426;28;20205;-46
2022/11/25 03:20:26;;;;;;;3.65;3.25;;;;;;;4.18;100.00;98354.41;4139876;28;20675;-45
2022/11/25 03:22:28;;;;;;;7.40;4.20;;;;;;;4.13;100.00;98354.22;4136702;28;20241;-45
2022/11/25 03:24:31;;;;;;;6.15;4.07;;;;;;;4.17;100.00;98347.34;4133407;28;20265;-45
2022/11/25 03:26:33;;;;;;;6.30;5.72;;;;;;;4.23;100.00;98351.91;4139569;28;20201;-45
2022/11/25 03:28:35;;;;;;;4.72;4.05;;;;;;;4.23;100.00;98349.19;4132106;28;20244;-45
2022/11/25 03:30:36;;;;;;;3.95;3.65;;;;;;;4.39;100.00;98356.81;4136795;28;20209;-44
2022/11/25 03:32:38;;;;;;;4.43;3.95;;;;;;;4.30;100.00;98352.69;4136619;28;20694;-46
2022/11/25 03:34:40;;;;;;;3.53;3.22;;;;;;;4.37;100.00;98361.63;4139949;28;20307;-45
2022/11/25 03:36:42;;;;;;;6.97;4.90;;;;;;;4.38;100.00;98362.44;4138423;28;20665;-46
2022/11/25 03:38:44;;;;;;;7.75;4.15;;;;;;;4.36;100.00;98362.69;4139978;28;20295;-45
2022/11/25 03:40:46;;;;;;;5.15;4.65;;;;;;;4.50;100.00;98348.03;4123969;28;20588;-45
2022/11/25 03:42:48;;;;;;;7.78;3.30;;;;;;;4.43;100.00;98355.34;4143323;28;20205;-46
2022/11/25 03:44:50;;;;;;;6.68;4.78;;;;;;;4.50;100.00;98353.44;4122953;28;20253;-45
2022/11/25 03:46:51;;;;;;;4.95;3.78;;;;;;;4.41;100.00;98345.78;4156363;28;20208;-45
2022/11/25 03:48:53;;;;;;;3.83;3.38;;;;;;;4.39;100.00;98345.97;4144702;28;20244;-45
2022/11/25 03:50:58;;;;;;;2.88;2.67;;;;;;;4.38;100.00;98341.63;4142127;28;20241;-45
2022/11/25 03:53:00;;;;;;;4.50;4.13;;;;;;;4.37;100.00;98337.25;4130423;28;20264;-45
2022/11/25 03:55:02;;;;;;;4.78;4.03;;;;;;;4.42;100.00;98339.31;4142202;28;20237;-45
2022/11/25 03:57:04;;;;;;;4.50;3.28;;;;;;;4.40;100.00;98334.09;4143218;28;20332;-46
2022/11/25 03:59:06;;;;;;;4.50;4.20;;;;;;;4.46;100.00;98329.72;4144897;28;20685;-46
2022/11/25 04:01:07;;;;;;;4.03;3.72;;;;;;;4.41;100.00;98333.03;4137379;28;20210;-46
2022/11/25 04:03:09;;;;;;;4.25;3.67;;;;;;;4.42;100.00;98339.31;4145649;28;20215;-45
2022/11/25 04:05:11;;;;;;;4.80;3.65;;;;;;;4.41;100.00;98333.03;4143636;28;20781;-45
2022/11/25 04:07:13;;;;;;;2.90;2.70;;;;;;;4.31;100.00;98334.56;4130582;28;20241;-45
2022/11/25 04:09:14;;;;;;;3.58;2.97;;;;;;;4.36;100.00;98335.59;4159238;28;20215;-47
2022/11/25 04:11:16;;;;;;;4.28;3.78;;;;;;;4.41;100.00;98324.91;4143578;28;20718;-45
2022/11/25 04:13:18;;;;;;;4.65;3.38;;;;;;;4.26;100.00;98324.38;4140229;28;20217;-44
2022/11/25 04:15:20;;;;;;;3.97;3.17;;;;;;;4.23;100.00;98324.81;4143423;28;20315;-46
2022/11/25 04:17:22;;;;;;;3.40;3.10;;;;;;;4.23;100.00;98330.22;4137055;28;20748;-45
2022/11/25 04:19:24;;;;;;;3.38;3.08;;;;;;;4.25;100.00;98330.00;4123940;28;20316;-45
2022/11/25 04:21:26;;;;;;;3.30;3.00;;;;;;;4.25;100.00;98325.44;4145700;28;20212;-45
2022/11/25 04:23:27;;;;;;;2.92;2.72;;;;;;;4.40;100.00;98328.69;4158822;28;20236;-46
2022/11/25 04:25:29;;;;;;;3.95;3.22;;;;;;;4.33;100.00;98325.19;4156082;28;20328;-46
2022/11/25 04:27:31;;;;;;;2.78;2.58;;;;;;;4.32;100.00;98328.94;4141421;28;20209;-46
2022/11/25 04:29:33;;;;;;;6.05;3.67;;;;;;;4.30;100.00;98331.03;4142637;28;20209;-45
2022/11/25 04:31:36;;;;;;;4.47;3.78;;;;;;;4.39;100.00;98335.16;4141819;28;20209;-46
2022/11/25 04:33:38;;;;;;;4.90;2.88;;;;;;;4.33;100.00;98335.19;4125658;28;20300;-45
2022/11/25 04:35:40;;;;;;;6.93;2.75;;;;;;;4.39;100.00;98340.56;4140747;28;20278;-45
2022/11/25 04:37:42;;;;;;;3.38;3.08;;;;;;;4.37;100.00;98348.09;4141450;28;20308;-45
2022/11/25 04:39:43;;;;;;;4.07;3.20;;;;;;;4.44;100.00;98359.72;4142631;28;20718;-45
2022/11/25 04:41:45;;;;;;;8.77;2.92;;;;;;;4.52;100.00;98345.91;4137304;28;20237;-45
2022/11/25 04:43:47;;;;;;;5.28;3.85;;;;;;;4.58;100.00;98355.91;4140039;28;22068;-45
2022/11/25 04:45:50;;;;;;;4.57;3.58;;;;;;;4.49;100.00;98357.19;4143060;28;20643;-45
2022/11/25 04:48:11;;;;;;;2.88;2.60;;;;;;;4.58;100.00;98355.91;4138319;28;20214;-45
2022/11/25 04:50:15;;;;;;;4.22;3.15;;;;;;;4.47;100.00;98351.16;4146419;28;20643;-45
2022/11/25 04:52:17;;;;;;;3.05;2.67;;;;;;;4.50;100.00;98353.44;4142857;28;20214;-47
2022/11/25 04:54:19;;;;;;;3.72;3.30;;;;;;;4.50;100.00;98348.03;4145864;28;20324;-45
2022/11/25 04:56:21;;;;;;;3.67;3.03;;;;;;;4.45;100.00;98364.09;4143341;28;20817;-46
2022/11/25 05:00:43;;;;;;;3.65;3.35;;;;;;;4.51;100.00;98365.09;4138150;28;20214;-45
2022/11/25 05:02:44;;;;;;;3.38;3.08;;;;;;;4.54;100.00;98367.38;4156632;28;20275;-45
2022/11/25 05:04:47;;;;;;;2.55;2.15;;;;;;;4.57;100.00;98369.66;4135554;28;20281;-44
2022/11/25 05:06:50;;;;;;;2.63;2.42;;;;;;;4.60;100.00;98375.47;4143411;28;20240;-46
2022/11/25 05:08:52;;;;;;;4.32;2.40;;;;;;;4.69;100.00;98376.06;4138877;28;20205;-46
2022/11/25 05:10:54;;;;;;;3.33;3.00;;;;;;;4.66;100.00;98374.59;4141097;28;20210;-45
2022/11/25 05:12:56;;;;;;;3.33;2.78;;;;;;;4.82;100.00;98378.69;4139739;28;20663;-45
2022/11/25 05:14:58;;;;;;;3.58;2.85;;;;;;;4.74;100.00;98382.47;4123809;28;20277;-45
2022/11/25 05:17:01;;;;;;;3.25;2.92;;;;;;;4.71;100.00;98388.34;4139472;28;20233;-45
2022/11/25 05:19:03;;;;;;;4.75;3.03;;;;;;;4.71;100.00;98382.94;4138267;28;20255;-44
2022/11/25 05:21:06;;;;;;;2.90;2.22;;;;;;;4.65;100.00;98389.22;4152925;28;20244;-44
2022/11/25 05:23:08;;;;;;;3.55;3.05;;;;;;;4.69;100.00;98379.63;4151540;28;20208;-45
2022/11/25 05:25:10;;;;;;;3.60;3.30;;;;;;;4.69;100.00;98385.03;4138519;28;20312;-45
2022/11/25 05:27:12;;;;;;;4.03;3.67;;;;;;;4.73;100.00;98385.44;4141695;28;20231;-45
2022/11/25 05:29:14;;;;;;;3.95;3.33;;;;;;;4.71;100.00;98393.75;4142352;28;20240;-44
2022/11/25 05:31:16;;;;;;;6.05;3.40;;;;;;;4.78;100.00;98389.13;4144532;28;20218;-45
2022/11/25 05:33:18;;;;;;;3.47;2.95;;;;;;;4.93;100.00;98386.97;4140775;28;20759;-44
2022/11/25 05:35:20;;;;;;;3.47;3.17;;;;;;;4.79;100.00;98385.38;4134124;28;20321;-44
2022/11/25 05:37:22;;;;;;;6.22;3.40;;;;;;;4.85;100.00;98389.94;4138239;28;20263;-46
2022/11/25 05:39:25;;;;;;;2.95;2.72;;;;;;;4.80;100.00;98388.94;4141983;28;20245;-44
2022/11/25 05:41:27;;;;;;;3.05;2.72;;;;;;;4.82;100.00;98390.38;4139090;28;20293;-45
2022/11/25 05:43:29;;;;;;;3.83;3.47;;;;;;;4.81;100.00;98399.53;4152321;28;20260;-44
2022/11/25 05:45:30;;;;;;;2.90;2.65;;;;;;;4.87;100.00;98411.41;4137409;28;20217;-44
2022/11/25 05:47:32;;;;;;;3.83;2.53;;;;;;;4.90;100.00;98411.81;4120417;28;20234;-44
2022/11/25 05:49:34;;;;;;;5.80;3.58;;;;;;;4.87;100.00;98411.41;4140048;28;20236;-45
2022/11/25 05:51:39;;;;;;;5.82;3.30;;;;;;;4.91;100.00;98415.34;4127501;28;20284;-44
2022/11/25 05:53:41;;;;;;;4.78;3.08;;;;;;;4.91;100.00;98416.19;4139418;28;20225;-45
2022/11/25 05:55:43;;;;;;;5.47;3.35;;;;;;;4.91;100.00;98416.19;4154562;28;20212;-45
2022/11/25 05:57:45;;;;;;;3.63;3.33;;;;;;;4.96;100.00;98410.94;4139790;28;20315;-45
2022/11/25 05:59:47;;;;;;;3.95;2.75;;;;;;;4.87;100.00;98411.41;4144409;28;20271;-45
2022/11/25 06:01:52;;;;;;;3.42;3.13;;;;;;;4.92;100.00;98422.41;4140180;28;20210;-44
2022/11/25 06:03:54;;;;;;;5.55;4.03;;;;;;;4.88;100.00;98416.59;4151832;28;20283;-47
2022/11/25 06:05:58;;;;;;;8.05;5.35;;;;;;;5.03;100.00;98422.59;4139335;28;20248;-45
2022/11/25 06:07:59;;;;;;;3.55;3.17;;;;;;;4.88;100.00;98421.19;4140024;28;20210;-45
2022/11/25 06:10:01;;;;;;;3.50;3.17;;;;;;;4.91;100.00;98426.19;4143474;28;20201;-45
2022/11/25 06:12:04;;;;;;;4.15;3.75;;;;;;;4.89;100.00;98431.84;4153204;28;20315;-46
2022/11/25 06:14:06;;;;;;;4.18;3.22;;;;;;;5.00;100.00;98422.19;4138229;28;20260;-45
2022/11/25 06:16:09;;;;;;;4.45;4.05;;;;;;;4.89;100.00;98423.72;4155361;28;20714;-46
2022/11/25 06:18:12;;;;;;;4.97;4.32;;;;;;;4.98;100.00;98430.53;4153507;28;20300;-45
2022/11/25 06:20:14;;;;;;;10.35;4.55;;;;;;;4.94;100.00;98426.56;4134009;28;20616;-45
2022/11/25 06:22:16;;;;;;;5.07;4.57;;;;;;;5.03;100.00;98429.88;4133061;28;20236;-45
2022/11/25 06:24:18;;;;;;;4.65;4.25;;;;;;;5.02;100.00;98434.47;4135615;28;20721;-45
2022/11/25 06:26:21;;;;;;;8.23;4.50;;;;;;;5.01;100.00;98435.50;4132660;28;20201;-45
2022/11/25 06:28:23;;;;;;;4.00;3.60;;;;;;;5.01;100.00;98443.63;4119976;28;20794;-45
2022/11/25 06:30:25;;;;;;;4.57;4.20;;;;;;;5.01;100.00;98438.22;4115138;28;20261;-45
2022/11/25 06:32:27;;;;;;;5.55;5.05;;;;;;;5.03;100.00;98441.56;4130038;28;20233;-46
2022/11/25 06:34:29;;;;;;;5.13;4.72;;;;;;;5.05;100.00;98442.16;4116097;28;20229;-45
2022/11/25 06:36:31;;;;;;;7.15;5.45;;;;;;;5.09;100.00;98440.69;4129974;28;20604;-45
2022/11/25 06:38:33;;;;;;;6.97;4.47;;;;;;;5.10;100.00;98448.59;4124529;28;20938;-46
2022/11/25 06:40:35;;;;;;;6.45;5.45;;;;;;;5.13;100.00;98441.91;4127367;28;20225;-46
2022/11/25 06:42:38;;;;;;;6.20;4.78;;;;;;;5.15;100.00;98450.69;4131961;28;20624;-46
2022/11/25 06:44:40;;;;;;;7.30;4.90;;;;;;;5.14;100.00;98451.69;4128912;28;21718;-45
2022/11/25 06:46:42;;;;;;;8.98;5.28;;;;;;;5.26;100.00;98456.22;4132525;28;20212;-46
2022/11/25 06:48:44;;;;;;;4.93;4.53;;;;;;;5.21;100.00;98455.22;4133955;28;20217;-45
2022/11/25 06:50:55;;;;;;;6.53;4.13;;;;;;;5.27;100.00;98460.59;4130414;28;20697;-45
2022/11/25 06:53:00;;;;;;;5.25;4.82;;;;;;;5.44;100.00;98460.91;4124702;28;20210;-45
2022/11/25 06:55:03;;;;;;;2.42;2.22;;;;;;;5.50;100.00;98460.84;4132377;28;20240;-45
2022/11/25 06:57:07;;;;;;;2.42;2.22;;;;;;;5.65;100.00;98460.56;4118119;28;20662;-46
2022/11/25 06:59:09;;;;;;;2.50;2.30;;;;;;;5.86;100.00;98457.50;4145201;28;21303;-46
2022/11/25 07:01:12;;;;;;;1.70;1.60;;;;;;;5.95;100.00;98456.19;4137553;28;20213;-45
2022/11/25 07:03:15;;;;;;;1.48;1.38;;;;;;;6.13;100.00;98461.63;4131589;28;20206;-46
2022/11/25 07:05:18;;;;;;;1.63;1.52;;;;;;;6.20;100.00;98456.97;4153649;28;20216;-45
2022/11/25 07:07:20;;;;;;;2.42;2.05;;;;;;;6.34;100.00;98470.19;4125823;28;20206;-45
2022/11/25 07:09:23;;;;;;;1.85;1.35;;;;;;;6.33;100.00;98467.69;4136442;28;20316;-46
2022/11/25 07:11:33;;;;;;;4.43;2.45;;;;;;;6.29;100.00;98471.94;4137604;28;20229;-46
2022/11/25 07:13:35;;;;;;;1.73;1.63;;;;;;;6.22;100.00;98465.75;4136929;28;20683;-46
2022/11/25 07:15:37;;;;;;;2.10;1.77;;;;;;;6.25;100.00;98481.59;4151243;28;20211;-45
2022/11/25 07:17:39;;;;;;;1.70;1.60;;;;;;;6.13;100.00;98473.34;4136124;28;20225;-46
2022/11/25 07:19:41;;;;;;;4.35;3.05;;;;;;;6.16;100.00;98472.06;4151616;28;21352;-45
2022/11/25 07:21:44;;;;;;;3.30;3.08;;;;;;;6.18;100.00;98472.66;4136585;28;20266;-45
2022/11/25 07:23:46;;;;;;;4.82;3.50;;;;;;;6.20;100.00;98463.25;4119251;28;20210;-45
2022/11/25 07:25:48;;;;;;;4.57;2.15;;;;;;;6.31;100.00;98469.81;4139871;28;20259;-45
2022/11/25 07:27:50;;;;;;;1.88;1.70;;;;;;;6.35;100.00;98476.47;4147140;28;20600;-46
2022/11/25 07:29:52;;;;;;;6.85;2.33;;;;;;;6.34;100.00;98477.50;4130244;28;20623;-46
2022/11/25 07:32:14;;;;;;;5.30;4.30;;;;;;;6.39;100.00;98483.13;4140210;28;20236;-46
2022/11/25 07:34:19;;;;;;;4.40;4.00;;;;;;;6.40;100.00;98484.78;4137997;28;20280;-46
2022/11/25 07:36:22;;;;;;;4.13;3.15;;;;;;;6.45;100.00;98495.81;4121791;28;20214;-45
2022/11/25 07:38:23;;;;;;;3.13;2.55;;;;;;;6.45;100.00;98498.53;4142010;28;20221;-45
2022/11/25 07:40:25;;;;;;;3.47;3.17;;;;;;;6.51;100.00;98503.91;4135430;28;20690;-45
2022/11/25 07:42:40;;;;;;;3.17;2.88;;;;;;;6.45;100.00;98496.66;4139458;28;20755;-46
2022/11/25 07:44:43;;;;;;;5.13;3.17;;;;;;;6.43;100.00;98506.09;4139134;28;20603;-45
2022/11/25 07:46:47;;;;;;;4.55;3.47;;;;;;;6.41;100.00;98509.00;4138700;28;20705;-46
2022/11/25 07:48:50;;;;;;;9.23;3.72;;;;;;;6.47;100.00;98512.72;4139076;28;20655;-45
2022/11/25 07:50:52;;;;;;;4.57;4.05;;;;;;;6.50;100.00;98523.16;4139534;28;20896;-46
2022/11/25 07:52:54;;;;;;;4.30;3.90;;;;;;;6.40;100.00;98517.38;4103057;28;20247;-46
2022/11/25 07:54:56;;;;;;;4.55;3.42;;;;;;;6.44;100.00;98530.31;4131465;28;20365;-46
2022/11/25 07:57:01;;;;;;;5.47;3.47;;;;;;;6.43;100.00;98522.38;4135589;28;20226;-46
2022/11/25 07:59:04;;;;;;;2.85;2.50;;;;;;;6.45;100.00;98525.69;4141891;28;20259;-45
2022/11/25 08:01:08;;;;;;;2.75;2.50;;;;;;;6.54;100.00;98532.50;4139768;28;20213;-46
2022/11/25 08:03:13;;;;;;;3.85;2.70;;;;;;;6.62;100.00;98529.53;4141383;28;20235;-45
2022/11/25 08:05:16;;;;;;;3.85;2.22;;;;;;;6.60;100.00;98528.88;4152042;28;20708;-46
2022/11/25 08:07:18;;;;;;;2.13;1.92;;;;;;;6.63;100.00;98534.72;4152985;28;20621;-45
2022/11/25 08:09:22;;;;;;;2.90;1.98;;;;;;;6.61;100.00;98530.53;4137593;28;20754;-45
2022/11/25 08:11:27;;;;;;;3.60;2.03;;;;;;;6.63;100.00;98528.47;4152488;28;20235;-45
2022/11/25 08:13:31;;;;;;;2.28;2.08;;;;;;;6.68;100.00;98528.63;4115400;28;20203;-46
2022/11/25 08:15:34;;;;;;;4.63;2.00;;;;;;;6.77;100.00;98532.69;4118719;28;20677;-45
2022/11/25 08:17:36;;;;;;;2.80;2.20;;;;;;;6.86;100.00;98534.06;4133392;28;20741;-46
2022/11/25 08:19:39;;;;;;;2.05;1.92;;;;;;;6.92;100.00;98528.56;4152738;28;20210;-46
2022/11/25 08:21:47;;;;;;;2.17;2.03;;;;;;;6.92;100.00;98533.16;4137169;28;20198;-46
2022/11/25 08:23:51;;;;;;;4.55;2.30;;;;;;;6.95;100.00;98543.59;4151188;28;20233;-45
2022/11/25 08:25:53;;;;;;;4.70;2.35;;;;;;;6.92;100.00;98544.88;4152991;28;20202;-45
2022/11/25 08:27:55;;;;;;;2.47;1.60;;;;;;;6.98;100.00;98543.13;4137654;28;20218;-45
2022/11/25 08:29:57;;;;;;;1.50;1.40;;;;;;;7.05;100.00;98543.88;4141321;28;20209;-46
2022/11/25 08:31:59;;;;;;;1.95;1.75;;;;;;;7.06;100.00;98542.81;4137813;28;20615;-45
2022/11/25 08:34:01;;;;;;;4.85;2.63;;;;;;;7.13;100.00;98543.56;4149239;28;20320;-45
2022/11/25 08:36:05;;;;;;;5.70;2.00;;;;;;;7.13;100.00;98540.84;4135986;28;20209;-46
2022/11/25 08:38:08;;;;;;;4.78;2.15;;;;;;;7.15;100.00;98549.63;4138639;28;20241;-46
2022/11/25 08:40:10;;;;;;;2.33;2.13;;;;;;;7.21;100.00;98548.72;4139134;28;20667;-45
2022/11/25 08:42:12;;;;;;;2.70;1.85;;;;;;;7.23;100.00;98546.59;4114603;28;20202;-46
2022/11/25 08:44:14;;;;;;;2.60;1.50;;;;;;;7.28;100.00;98554.91;4142480;28;20252;-46
2022/11/25 08:46:19;;;;;;;7.18;2.35;;;;;;;7.22;100.00;98555.81;4150261;28;20231;-46
2022/11/25 08:48:21;;;;;;;1.83;1.67;;;;;;;7.28;100.00;98560.38;4135688;28;20586;-45
2022/11/25 08:50:24;;;;;;;5.20;2.95;;;;;;;7.31;100.00;98559.91;4139215;28;20763;-45
2022/11/25 08:52:27;;;;;;;1.83;1.73;;;;;;;7.33;100.00;98560.47;4122467;28;20214;-44
2022/11/25 08:54:29;;;;;;;2.92;1.63;;;;;;;7.41;100.00;98560.19;4141293;28;20229;-45
2022/11/25 08:56:31;;;;;;;2.30;2.10;;;;;;;7.42;100.00;98564.59;4137389;28;20692;-46
2022/11/25 08:58:34;;;;;;;3.63;2.25;;;;;;;7.46;100.00;98572.06;4131422;28;20225;-45
2022/11/25 09:00:37;;;;;;;2.60;2.35;;;;;;;7.47;100.00;98572.88;4137562;28;20206;-45
2022/11/25 09:02:39;;;;;;;6.85;2.28;;;;;;;7.58;100.00;98580.28;4138231;28;21062;-45
2022/11/25 09:04:43;;;;;;;6.85;2.15;;;;;;;7.54;100.00;98581.78;4138552;28;20359;-45
2022/11/25 09:06:50;;;;;;;5.80;3.25;;;;;;;7.67;100.00;98581.59;4140390;28;20272;-45
2022/11/25 09:09:08;;;;;;;5.13;2.33;;;;;;;7.65;100.00;98583.75;4134671;28;20689;-45
2022/11/25 09:11:22;;;;;;;4.63;2.38;;;;;;;7.70;100.00;98597.50;4134328;28;20209;-45
2022/11/25 09:13:29;;;;;;;4.13;2.45;;;;;;;7.72;100.00;98584.47;4133992;28;20245;-46
2022/11/25 09:15:31;;;;;;;4.93;3.10;;;;;;;7.72;100.00;98598.94;4131800;28;20210;-45
2022/11/25 09:17:36;;;;;;;3.42;2.50;;;;;;;7.77;100.00;98598.25;4136077;28;20225;-45
2022/11/25 09:19:54;;;;;;;2.42;2.30;;;;;;;7.76;100.00;98597.41;4137315;28;20734;-46
2022/11/25 09:21:55;;;;;;;3.58;2.55;;;;;;;7.78;100.00;98600.75;4138245;28;20232;-45
2022/11/25 09:23:57;;;;;;;3.10;2.13;;;;;;;7.81;100.00;98602.19;4135172;28;20241;-46
2022/11/25 09:25:59;;;;;;;2.65;2.42;;;;;;;7.85;100.00;98603.38;4122870;28;20363;-45
2022/11/25 09:28:01;;;;;;;7.18;3.03;;;;;;;7.89;100.00;98604.56;4141627;28;20206;-46
2022/11/25 09:30:04;;;;;;;3.42;2.20;;;;;;;7.95;100.00;98603.66;4137089;28;20324;-46
2022/11/25 09:32:05;;;;;;;9.02;3.08;;;;;;;8.06;100.00;98611.03;4136587;28;20297;-46
2022/11/25 09:34:08;;;;;;;3.10;2.65;;;;;;;8.03;100.00;98609.59;4139252;28;20229;-46
2022/11/25 09:36:11;;;;;;;4.25;2.38;;;;;;;8.09;100.00;98616.03;4119532;28;20301;-46
2022/11/25 09:38:13;;;;;;;2.45;2.17;;;;;;;8.06;100.00;98620.03;4141487;28;20267;-45
2022/11/25 09:40:18;;;;;;;3.83;2.42;;;;;;;8.13;100.00;98614.47;4149929;28;20216;-46
2022/11/25 09:47:37;;;;;;;2.28;2.17;;;;;;;8.26;100.00;98620.63;4137010;28;20737;-46
2022/11/25 09:50:08;;;;;;;4.20;2.55;;;;;;;8.30;100.00;98632.69;4140864;28;20267;-46
2022/11/25 09:52:21;;;;;;;3.13;2.78;;;;;;;8.28;100.00;98629.38;4134685;28;20213;-46
2022/11/25 09:54:30;;;;;;;9.65;3.90;;;;;;;8.27;100.00;98632.34;4151069;28;20330;-46